sensor_id;sensor_type;location;lat;lon;timestamp;temperature;humidity
65864;SHT30;52639;51.180;20.460;2024-02-14T00:03:27;3.47;91.86
65864;SHT30;52639;51.180;20.460;2024-02-14T00:07:31;3.40;91.82
65864;SHT30;52639;51.180;20.460;2024-02-14T00:11:32;3.44;91.92
65864;SHT30;52639;51.180;20.460;2024-02-14T00:15:34;3.40;92.08
65864;SHT30;52639;51.180;20.460;2024-02-14T00:19:37;3.34;91.78
65864;SHT30;52639;51.180;20.460;2024-02-14T00:28:02;3.33;92.00
65864;SHT30;52639;51.180;20.460;2024-02-14T00:32:04;3.28;92.26
65864;SHT30;52639;51.180;20.460;2024-02-14T00:36:15;3.27;92.30
65864;SHT30;52639;51.180;20.460;2024-02-14T00:40:18;3.26;92.26
65864;SHT30;52639;51.180;20.460;2024-02-14T00:44:21;3.23;92.27
65864;SHT30;52639;51.180;20.460;2024-02-14T00:48:23;3.19;92.17
65864;SHT30;52639;51.180;20.460;2024-02-14T00:52:25;3.07;92.25
65864;SHT30;52639;51.180;20.460;2024-02-14T00:56:27;3.06;92.63
65864;SHT30;52639;51.180;20.460;2024-02-14T01:00:30;3.03;92.49
65864;SHT30;52639;51.180;20.460;2024-02-14T01:04:33;3.04;92.72
65864;SHT30;52639;51.180;20.460;2024-02-14T01:08:36;2.99;92.69
65864;SHT30;52639;51.180;20.460;2024-02-14T01:12:38;2.99;92.66
65864;SHT30;52639;51.180;20.460;2024-02-14T01:16:45;2.95;92.88
65864;SHT30;52639;51.180;20.460;2024-02-14T01:20:47;2.90;92.97
65864;SHT30;52639;51.180;20.460;2024-02-14T01:24:49;2.95;93.08
65864;SHT30;52639;51.180;20.460;2024-02-14T01:28:51;2.99;93.18
65864;SHT30;52639;51.180;20.460;2024-02-14T01:32:54;2.99;93.09
65864;SHT30;52639;51.180;20.460;2024-02-14T01:36:56;2.96;93.11
65864;SHT30;52639;51.180;20.460;2024-02-14T01:40:58;2.92;93.09
65864;SHT30;52639;51.180;20.460;2024-02-14T01:45:00;2.87;93.13
65864;SHT30;52639;51.180;20.460;2024-02-14T01:49:05;2.86;93.19
65864;SHT30;52639;51.180;20.460;2024-02-14T01:53:07;2.83;93.17
65864;SHT30;52639;51.180;20.460;2024-02-14T01:57:09;2.83;93.32
65864;SHT30;52639;51.180;20.460;2024-02-14T02:01:11;2.79;93.30
65864;SHT30;52639;51.180;20.460;2024-02-14T02:05:15;2.76;93.43
65864;SHT30;52639;51.180;20.460;2024-02-14T02:09:17;2.76;93.43
65864;SHT30;52639;51.180;20.460;2024-02-14T02:13:25;2.77;93.49
65864;SHT30;52639;51.180;20.460;2024-02-14T02:17:27;2.79;93.53
65864;SHT30;52639;51.180;20.460;2024-02-14T02:21:31;2.76;93.42
65864;SHT30;52639;51.180;20.460;2024-02-14T02:25:34;2.73;93.67
65864;SHT30;52639;51.180;20.460;2024-02-14T02:29:36;2.66;93.51
65864;SHT30;52639;51.180;20.460;2024-02-14T02:33:38;2.66;93.70
65864;SHT30;52639;51.180;20.460;2024-02-14T02:37:40;2.71;93.54
65864;SHT30;52639;51.180;20.460;2024-02-14T02:41:44;2.63;93.46
65864;SHT30;52639;51.180;20.460;2024-02-14T02:45:48;2.63;93.86
65864;SHT30;52639;51.180;20.460;2024-02-14T02:49:50;2.65;93.69
65864;SHT30;52639;51.180;20.460;2024-02-14T02:53:54;2.60;93.62
65864;SHT30;52639;51.180;20.460;2024-02-14T02:57:57;2.60;93.56
65864;SHT30;52639;51.180;20.460;2024-02-14T03:01:59;2.53;93.69
65864;SHT30;52639;51.180;20.460;2024-02-14T03:06:01;2.53;93.66
65864;SHT30;52639;51.180;20.460;2024-02-14T03:10:04;2.48;93.56
65864;SHT30;52639;51.180;20.460;2024-02-14T03:14:08;2.42;93.79
65864;SHT30;52639;51.180;20.460;2024-02-14T03:18:10;2.38;93.78
65864;SHT30;52639;51.180;20.460;2024-02-14T03:22:12;2.38;93.82
65864;SHT30;52639;51.180;20.460;2024-02-14T03:26:14;2.29;93.77
65864;SHT30;52639;51.180;20.460;2024-02-14T03:30:18;2.21;93.81
65864;SHT30;52639;51.180;20.460;2024-02-14T03:34:20;2.17;94.16
65864;SHT30;52639;51.180;20.460;2024-02-14T03:38:25;2.18;94.31
65864;SHT30;52639;51.180;20.460;2024-02-14T03:42:27;2.21;94.19
65864;SHT30;52639;51.180;20.460;2024-02-14T03:46:31;2.17;94.21
65864;SHT30;52639;51.180;20.460;2024-02-14T03:50:35;2.18;94.29
65864;SHT30;52639;51.180;20.460;2024-02-14T03:54:37;2.17;94.24
65864;SHT30;52639;51.180;20.460;2024-02-14T03:58:39;2.10;94.22
65864;SHT30;52639;51.180;20.460;2024-02-14T04:02:42;2.10;94.40
65864;SHT30;52639;51.180;20.460;2024-02-14T04:06:44;2.11;94.46
65864;SHT30;52639;51.180;20.460;2024-02-14T04:10:47;2.08;94.50
65864;SHT30;52639;51.180;20.460;2024-02-14T04:14:50;2.00;94.33
65864;SHT30;52639;51.180;20.460;2024-02-14T04:18:53;2.00;94.48
65864;SHT30;52639;51.180;20.460;2024-02-14T04:22:56;2.00;94.53
65864;SHT30;52639;51.180;20.460;2024-02-14T04:26:59;1.98;94.77
65864;SHT30;52639;51.180;20.460;2024-02-14T04:31:03;1.94;94.67
65864;SHT30;52639;51.180;20.460;2024-02-14T04:35:07;1.95;94.78
65864;SHT30;52639;51.180;20.460;2024-02-14T04:39:09;1.98;94.81
65864;SHT30;52639;51.180;20.460;2024-02-14T04:47:37;1.91;94.93
65864;SHT30;52639;51.180;20.460;2024-02-14T04:51:41;1.88;94.86
65864;SHT30;52639;51.180;20.460;2024-02-14T04:55:43;1.81;94.74
65864;SHT30;52639;51.180;20.460;2024-02-14T04:59:45;1.74;94.70
65864;SHT30;52639;51.180;20.460;2024-02-14T05:03:47;1.67;94.65
65864;SHT30;52639;51.180;20.460;2024-02-14T05:07:51;1.60;94.67
65864;SHT30;52639;51.180;20.460;2024-02-14T05:11:53;1.53;94.74
65864;SHT30;52639;51.180;20.460;2024-02-14T05:20:09;1.33;94.84
65864;SHT30;52639;51.180;20.460;2024-02-14T05:28:38;1.09;95.06
65864;SHT30;52639;51.180;20.460;2024-02-14T05:32:39;1.09;95.25
65864;SHT30;52639;51.180;20.460;2024-02-14T05:36:41;1.07;95.17
65864;SHT30;52639;51.180;20.460;2024-02-14T05:40:46;1.02;95.34
65864;SHT30;52639;51.180;20.460;2024-02-14T05:44:50;0.85;95.08
65864;SHT30;52639;51.180;20.460;2024-02-14T05:48:52;0.79;95.48
65864;SHT30;52639;51.180;20.460;2024-02-14T05:52:55;0.73;95.31
65864;SHT30;52639;51.180;20.460;2024-02-14T05:56:58;0.61;95.20
65864;SHT30;52639;51.180;20.460;2024-02-14T06:01:01;0.58;95.50
65864;SHT30;52639;51.180;20.460;2024-02-14T06:05:03;0.58;95.49
65864;SHT30;52639;51.180;20.460;2024-02-14T06:09:05;0.52;95.52
65864;SHT30;52639;51.180;20.460;2024-02-14T06:13:18;0.51;94.91
65864;SHT30;52639;51.180;20.460;2024-02-14T06:17:21;0.50;95.77
65864;SHT30;52639;51.180;20.460;2024-02-14T06:21:23;0.57;95.63
65864;SHT30;52639;51.180;20.460;2024-02-14T06:25:26;0.51;95.64
65864;SHT30;52639;51.180;20.460;2024-02-14T06:29:28;0.40;95.10
65864;SHT30;52639;51.180;20.460;2024-02-14T06:33:31;0.34;95.67
65864;SHT30;52639;51.180;20.460;2024-02-14T06:37:33;0.50;95.97
65864;SHT30;52639;51.180;20.460;2024-02-14T06:41:35;0.68;95.87
65864;SHT30;52639;51.180;20.460;2024-02-14T06:49:58;1.20;95.54
65864;SHT30;52639;51.180;20.460;2024-02-14T06:54:00;1.36;95.97
65864;SHT30;52639;51.180;20.460;2024-02-14T06:58:02;2.15;96.29
65864;SHT30;52639;51.180;20.460;2024-02-14T07:02:05;3.00;96.69
65864;SHT30;52639;51.180;20.460;2024-02-14T07:06:08;3.20;95.29
65864;SHT30;52639;51.180;20.460;2024-02-14T07:10:10;3.00;93.81
65864;SHT30;52639;51.180;20.460;2024-02-14T07:14:12;3.00;94.20
65864;SHT30;52639;51.180;20.460;2024-02-14T07:18:15;2.79;92.79
65864;SHT30;52639;51.180;20.460;2024-02-14T07:22:18;3.10;94.37
65864;SHT30;52639;51.180;20.460;2024-02-14T07:26:20;3.17;92.16
65864;SHT30;52639;51.180;20.460;2024-02-14T07:30:22;3.16;92.25
65864;SHT30;52639;51.180;20.460;2024-02-14T07:34:25;3.04;92.23
65864;SHT30;52639;51.180;20.460;2024-02-14T07:38:28;2.99;92.08
65864;SHT30;52639;51.180;20.460;2024-02-14T07:42:30;3.10;92.91
65864;SHT30;52639;51.180;20.460;2024-02-14T07:50:53;5.15;91.74
65864;SHT30;52639;51.180;20.460;2024-02-14T07:54:58;6.95;90.27
65864;SHT30;52639;51.180;20.460;2024-02-14T07:59:00;8.75;85.04
65864;SHT30;52639;51.180;20.460;2024-02-14T08:03:02;8.44;85.76
65864;SHT30;52639;51.180;20.460;2024-02-14T08:07:06;8.50;84.64
65864;SHT30;52639;51.180;20.460;2024-02-14T08:11:09;8.93;79.09
65864;SHT30;52639;51.180;20.460;2024-02-14T08:15:11;9.76;84.97
65864;SHT30;52639;51.180;20.460;2024-02-14T08:19:13;10.15;81.84
65864;SHT30;52639;51.180;20.460;2024-02-14T08:23:16;10.99;80.87
65864;SHT30;52639;51.180;20.460;2024-02-14T08:27:20;11.42;73.20
65864;SHT30;52639;51.180;20.460;2024-02-14T08:31:22;11.74;78.95
65864;SHT30;52639;51.180;20.460;2024-02-14T08:35:24;11.85;79.61
65864;SHT30;52639;51.180;20.460;2024-02-14T08:39:26;12.04;67.77
65864;SHT30;52639;51.180;20.460;2024-02-14T08:43:30;11.73;68.89
65864;SHT30;52639;51.180;20.460;2024-02-14T08:47:31;12.25;66.06
65864;SHT30;52639;51.180;20.460;2024-02-14T08:51:33;12.48;68.55
65864;SHT30;52639;51.180;20.460;2024-02-14T08:55:35;12.37;66.12
65864;SHT30;52639;51.180;20.460;2024-02-14T08:59:40;12.14;79.48
65864;SHT30;52639;51.180;20.460;2024-02-14T09:03:44;12.29;74.52
65864;SHT30;52639;51.180;20.460;2024-02-14T09:07:48;12.44;83.05
65864;SHT30;52639;51.180;20.460;2024-02-14T09:11:50;12.35;80.20
65864;SHT30;52639;51.180;20.460;2024-02-14T09:15:53;12.42;75.85
65864;SHT30;52639;51.180;20.460;2024-02-14T09:19:55;12.35;67.65
65864;SHT30;52639;51.180;20.460;2024-02-14T09:23:57;11.50;69.27
65864;SHT30;52639;51.180;20.460;2024-02-14T09:27:59;12.39;80.80
65864;SHT30;52639;51.180;20.460;2024-02-14T09:32:02;11.75;81.32
65864;SHT30;52639;51.180;20.460;2024-02-14T09:36:05;11.22;63.08
65864;SHT30;52639;51.180;20.460;2024-02-14T09:40:07;13.00;77.40
65864;SHT30;52639;51.180;20.460;2024-02-14T09:44:13;10.99;75.48
65864;SHT30;52639;51.180;20.460;2024-02-14T09:48:16;12.01;78.24
65864;SHT30;52639;51.180;20.460;2024-02-14T09:52:18;9.50;81.31
65864;SHT30;52639;51.180;20.460;2024-02-14T09:56:21;9.71;81.46
65864;SHT30;52639;51.180;20.460;2024-02-14T10:00:24;10.22;82.98
65864;SHT30;52639;51.180;20.460;2024-02-14T10:04:27;12.97;75.90
65864;SHT30;52639;51.180;20.460;2024-02-14T10:08:29;14.58;69.31
65864;SHT30;52639;51.180;20.460;2024-02-14T10:12:31;13.23;68.38
65864;SHT30;52639;51.180;20.460;2024-02-14T10:16:34;12.83;76.40
65864;SHT30;52639;51.180;20.460;2024-02-14T10:20:37;12.35;80.43
65864;SHT30;52639;51.180;20.460;2024-02-14T10:24:46;12.66;53.73
65864;SHT30;52639;51.180;20.460;2024-02-14T10:28:48;13.17;62.72
65864;SHT30;52639;51.180;20.460;2024-02-14T10:32:51;12.90;60.60
65864;SHT30;52639;51.180;20.460;2024-02-14T10:36:57;14.11;64.05
65864;SHT30;52639;51.180;20.460;2024-02-14T10:41:01;14.35;69.49
65864;SHT30;52639;51.180;20.460;2024-02-14T10:45:03;11.95;75.11
65864;SHT30;52639;51.180;20.460;2024-02-14T10:49:06;10.56;73.84
65864;SHT30;52639;51.180;20.460;2024-02-14T10:53:12;9.97;75.42
65864;SHT30;52639;51.180;20.460;2024-02-14T10:57:14;9.67;73.42
65864;SHT30;52639;51.180;20.460;2024-02-14T11:01:21;8.99;77.35
65864;SHT30;52639;51.180;20.460;2024-02-14T11:05:25;9.36;76.10
65864;SHT30;52639;51.180;20.460;2024-02-14T11:09:32;9.22;77.95
65864;SHT30;52639;51.180;20.460;2024-02-14T11:13:43;9.14;69.38
65864;SHT30;52639;51.180;20.460;2024-02-14T11:17:45;9.30;75.33
65864;SHT30;52639;51.180;20.460;2024-02-14T11:21:48;9.29;74.84
65864;SHT30;52639;51.180;20.460;2024-02-14T11:26:00;9.22;74.51
65864;SHT30;52639;51.180;20.460;2024-02-14T11:30:03;9.11;72.77
65864;SHT30;52639;51.180;20.460;2024-02-14T11:34:07;8.81;76.59
65864;SHT30;52639;51.180;20.460;2024-02-14T11:38:13;8.84;68.99
65864;SHT30;52639;51.180;20.460;2024-02-14T11:42:16;8.61;75.79
65864;SHT30;52639;51.180;20.460;2024-02-14T11:46:24;8.64;66.32
65864;SHT30;52639;51.180;20.460;2024-02-14T11:50:43;8.89;73.33
65864;SHT30;52639;51.180;20.460;2024-02-14T11:54:46;8.76;72.43
65864;SHT30;52639;51.180;20.460;2024-02-14T11:58:50;8.91;70.28
65864;SHT30;52639;51.180;20.460;2024-02-14T12:02:55;8.85;71.23
65864;SHT30;52639;51.180;20.460;2024-02-14T12:06:57;8.93;77.24
65864;SHT30;52639;51.180;20.460;2024-02-14T12:11:02;8.88;72.21
65864;SHT30;52639;51.180;20.460;2024-02-14T12:15:08;8.42;75.52
65864;SHT30;52639;51.180;20.460;2024-02-14T12:19:20;7.80;75.73
65864;SHT30;52639;51.180;20.460;2024-02-14T12:23:46;7.80;75.70
65864;SHT30;52639;51.180;20.460;2024-02-14T12:27:54;7.89;65.33
65864;SHT30;52639;51.180;20.460;2024-02-14T12:32:10;8.27;71.41
65864;SHT30;52639;51.180;20.460;2024-02-14T12:36:12;8.14;72.08
65864;SHT30;52639;51.180;20.460;2024-02-14T12:40:14;8.07;78.93
65864;SHT30;52639;51.180;20.460;2024-02-14T12:44:16;8.14;75.50
65864;SHT30;52639;51.180;20.460;2024-02-14T12:48:23;8.13;71.74
65864;SHT30;52639;51.180;20.460;2024-02-14T12:52:27;8.45;70.24
65864;SHT30;52639;51.180;20.460;2024-02-14T12:56:29;8.30;74.08
65864;SHT30;52639;51.180;20.460;2024-02-14T13:00:31;8.13;70.88
65864;SHT30;52639;51.180;20.460;2024-02-14T13:04:42;7.91;66.99
65864;SHT30;52639;51.180;20.460;2024-02-14T13:08:44;7.79;66.51
65864;SHT30;52639;51.180;20.460;2024-02-14T13:12:46;7.66;66.57
65864;SHT30;52639;51.180;20.460;2024-02-14T13:16:48;7.89;73.05
65864;SHT30;52639;51.180;20.460;2024-02-14T13:20:59;7.93;75.37
65864;SHT30;52639;51.180;20.460;2024-02-14T13:25:01;7.83;71.93
65864;SHT30;52639;51.180;20.460;2024-02-14T13:29:05;7.75;69.34
65864;SHT30;52639;51.180;20.460;2024-02-14T13:33:07;7.69;72.25
65864;SHT30;52639;51.180;20.460;2024-02-14T13:37:13;7.76;72.45
65864;SHT30;52639;51.180;20.460;2024-02-14T13:41:16;7.70;73.54
65864;SHT30;52639;51.180;20.460;2024-02-14T13:45:18;7.73;77.48
65864;SHT30;52639;51.180;20.460;2024-02-14T13:49:19;7.58;72.06
65864;SHT30;52639;51.180;20.460;2024-02-14T13:53:25;7.62;75.09
65864;SHT30;52639;51.180;20.460;2024-02-14T13:57:27;7.59;74.19
65864;SHT30;52639;51.180;20.460;2024-02-14T14:01:29;7.38;71.24
65864;SHT30;52639;51.180;20.460;2024-02-14T14:05:31;7.32;69.92
65864;SHT30;52639;51.180;20.460;2024-02-14T14:09:33;7.15;72.70
65864;SHT30;52639;51.180;20.460;2024-02-14T14:13:36;6.94;75.00
65864;SHT30;52639;51.180;20.460;2024-02-14T14:17:38;6.77;73.53
65864;SHT30;52639;51.180;20.460;2024-02-14T14:21:40;6.61;73.81
65864;SHT30;52639;51.180;20.460;2024-02-14T14:25:49;6.54;73.37
65864;SHT30;52639;51.180;20.460;2024-02-14T14:29:51;6.44;72.41
65864;SHT30;52639;51.180;20.460;2024-02-14T14:33:54;6.47;73.39
65864;SHT30;52639;51.180;20.460;2024-02-14T14:37:57;6.44;72.55
65864;SHT30;52639;51.180;20.460;2024-02-14T14:42:01;6.53;73.98
65864;SHT30;52639;51.180;20.460;2024-02-14T14:46:16;6.60;73.78
65864;SHT30;52639;51.180;20.460;2024-02-14T14:50:18;6.51;74.62
65864;SHT30;52639;51.180;20.460;2024-02-14T14:54:20;6.51;73.37
65864;SHT30;52639;51.180;20.460;2024-02-14T14:58:23;6.44;73.80
65864;SHT30;52639;51.180;20.460;2024-02-14T15:02:27;6.26;74.60
65864;SHT30;52639;51.180;20.460;2024-02-14T15:06:29;6.13;75.81
65864;SHT30;52639;51.180;20.460;2024-02-14T15:10:31;5.99;76.03
65864;SHT30;52639;51.180;20.460;2024-02-14T15:14:34;5.88;76.51
65864;SHT30;52639;51.180;20.460;2024-02-14T15:18:36;5.99;78.61
65864;SHT30;52639;51.180;20.460;2024-02-14T15:22:38;5.99;76.34
65864;SHT30;52639;51.180;20.460;2024-02-14T15:26:40;6.01;75.20
65864;SHT30;52639;51.180;20.460;2024-02-14T15:31:06;5.99;77.92
65864;SHT30;52639;51.180;20.460;2024-02-14T15:35:26;5.81;76.43
65864;SHT30;52639;51.180;20.460;2024-02-14T15:39:29;5.55;76.83
65864;SHT30;52639;51.180;20.460;2024-02-14T15:43:31;5.38;77.02
65864;SHT30;52639;51.180;20.460;2024-02-14T15:47:35;5.00;77.48
65864;SHT30;52639;51.180;20.460;2024-02-14T15:51:37;4.54;78.98
65864;SHT30;52639;51.180;20.460;2024-02-14T15:55:39;4.19;80.37
65864;SHT30;52639;51.180;20.460;2024-02-14T15:59:41;3.89;81.21
65864;SHT30;52639;51.180;20.460;2024-02-14T16:03:44;3.63;81.93
65864;SHT30;52639;51.180;20.460;2024-02-14T16:07:47;3.50;83.03
65864;SHT30;52639;51.180;20.460;2024-02-14T16:11:49;3.40;83.56
65864;SHT30;52639;51.180;20.460;2024-02-14T16:15:57;3.31;84.18
65864;SHT30;52639;51.180;20.460;2024-02-14T16:20:01;3.33;84.80
65864;SHT30;52639;51.180;20.460;2024-02-14T16:24:03;3.41;84.17
65864;SHT30;52639;51.180;20.460;2024-02-14T16:32:18;3.17;83.96
65864;SHT30;52639;51.180;20.460;2024-02-14T16:36:21;2.96;84.32
65864;SHT30;52639;51.180;20.460;2024-02-14T16:40:23;2.76;84.71
65864;SHT30;52639;51.180;20.460;2024-02-14T16:44:27;2.58;84.94
65864;SHT30;52639;51.180;20.460;2024-02-14T16:48:29;2.48;85.71
65864;SHT30;52639;51.180;20.460;2024-02-14T16:52:33;2.44;85.63
65864;SHT30;52639;51.180;20.460;2024-02-14T16:56:36;2.34;85.94
65864;SHT30;52639;51.180;20.460;2024-02-14T17:00:38;2.22;86.23
65864;SHT30;52639;51.180;20.460;2024-02-14T17:04:40;2.18;86.77
65864;SHT30;52639;51.180;20.460;2024-02-14T17:08:43;2.29;87.40
65864;SHT30;52639;51.180;20.460;2024-02-14T17:12:45;2.41;87.13
65864;SHT30;52639;51.180;20.460;2024-02-14T17:16:48;2.58;87.40
65864;SHT30;52639;51.180;20.460;2024-02-14T17:20:59;2.72;86.74
65864;SHT30;52639;51.180;20.460;2024-02-14T17:25:06;2.77;86.84
65864;SHT30;52639;51.180;20.460;2024-02-14T17:29:11;2.72;86.51
65864;SHT30;52639;51.180;20.460;2024-02-14T17:33:13;2.93;87.30
65864;SHT30;52639;51.180;20.460;2024-02-14T17:37:14;3.26;86.83
65864;SHT30;52639;51.180;20.460;2024-02-14T17:41:19;3.41;85.72
65864;SHT30;52639;51.180;20.460;2024-02-14T17:45:22;3.48;85.03
65864;SHT30;52639;51.180;20.460;2024-02-14T17:49:24;3.53;84.17
65864;SHT30;52639;51.180;20.460;2024-02-14T17:53:26;3.44;83.34
65864;SHT30;52639;51.180;20.460;2024-02-14T17:57:31;3.43;83.42
65864;SHT30;52639;51.180;20.460;2024-02-14T18:01:33;3.51;83.27
65864;SHT30;52639;51.180;20.460;2024-02-14T18:05:34;3.58;83.44
65864;SHT30;52639;51.180;20.460;2024-02-14T18:09:41;3.67;83.28
65864;SHT30;52639;51.180;20.460;2024-02-14T18:13:44;3.65;83.67
65864;SHT30;52639;51.180;20.460;2024-02-14T18:17:52;3.57;82.90
65864;SHT30;52639;51.180;20.460;2024-02-14T18:21:54;3.53;82.87
65864;SHT30;52639;51.180;20.460;2024-02-14T18:25:57;3.61;83.43
65864;SHT30;52639;51.180;20.460;2024-02-14T18:30:00;3.63;83.19
65864;SHT30;52639;51.180;20.460;2024-02-14T18:34:03;3.54;82.94
65864;SHT30;52639;51.180;20.460;2024-02-14T18:38:07;3.35;82.77
65864;SHT30;52639;51.180;20.460;2024-02-14T18:42:10;3.24;83.29
65864;SHT30;52639;51.180;20.460;2024-02-14T18:46:13;3.11;83.48
65864;SHT30;52639;51.180;20.460;2024-02-14T18:50:15;2.87;84.22
65864;SHT30;52639;51.180;20.460;2024-02-14T18:54:17;2.69;84.79
65864;SHT30;52639;51.180;20.460;2024-02-14T18:58:22;2.53;85.01
65864;SHT30;52639;51.180;20.460;2024-02-14T19:02:26;2.39;85.86
65864;SHT30;52639;51.180;20.460;2024-02-14T19:06:32;2.35;85.82
65864;SHT30;52639;51.180;20.460;2024-02-14T19:10:35;2.17;86.17
65864;SHT30;52639;51.180;20.460;2024-02-14T19:14:36;2.00;86.46
65864;SHT30;52639;51.180;20.460;2024-02-14T19:18:40;1.88;86.79
65864;SHT30;52639;51.180;20.460;2024-02-14T19:22:43;1.63;86.78
65864;SHT30;52639;51.180;20.460;2024-02-14T19:26:46;1.56;87.61
65864;SHT30;52639;51.180;20.460;2024-02-14T19:30:49;1.64;87.90
65864;SHT30;52639;51.180;20.460;2024-02-14T19:34:52;1.60;87.95
65864;SHT30;52639;51.180;20.460;2024-02-14T19:43:26;1.80;88.75
65864;SHT30;52639;51.180;20.460;2024-02-14T19:47:28;2.05;89.03
65864;SHT30;52639;51.180;20.460;2024-02-14T19:51:31;2.25;88.97
65864;SHT30;52639;51.180;20.460;2024-02-14T19:55:34;2.55;88.23
65864;SHT30;52639;51.180;20.460;2024-02-14T19:59:36;2.75;87.59
65864;SHT30;52639;51.180;20.460;2024-02-14T20:03:38;2.86;86.82
65864;SHT30;52639;51.180;20.460;2024-02-14T20:07:56;2.99;85.71
65864;SHT30;52639;51.180;20.460;2024-02-14T20:11:58;3.07;85.01
65864;SHT30;52639;51.180;20.460;2024-02-14T20:16:00;3.04;84.96
65864;SHT30;52639;51.180;20.460;2024-02-14T20:20:02;3.00;85.22
65864;SHT30;52639;51.180;20.460;2024-02-14T20:24:06;2.89;84.80
65864;SHT30;52639;51.180;20.460;2024-02-14T20:28:10;2.92;84.88
65864;SHT30;52639;51.180;20.460;2024-02-14T20:32:19;3.07;84.74
65864;SHT30;52639;51.180;20.460;2024-02-14T20:36:21;3.11;84.36
65864;SHT30;52639;51.180;20.460;2024-02-14T20:40:24;3.24;84.93
65864;SHT30;52639;51.180;20.460;2024-02-14T20:44:26;3.31;84.17
65864;SHT30;52639;51.180;20.460;2024-02-14T20:48:28;3.35;83.58
65864;SHT30;52639;51.180;20.460;2024-02-14T20:52:30;3.41;83.51
65864;SHT30;52639;51.180;20.460;2024-02-14T21:01:02;3.47;82.27
65864;SHT30;52639;51.180;20.460;2024-02-14T21:05:05;3.48;82.67
65864;SHT30;52639;51.180;20.460;2024-02-14T21:09:07;3.55;83.10
65864;SHT30;52639;51.180;20.460;2024-02-14T21:13:13;3.58;83.35
65864;SHT30;52639;51.180;20.460;2024-02-14T21:17:16;3.60;83.12
65864;SHT30;52639;51.180;20.460;2024-02-14T21:21:18;3.64;82.69
65864;SHT30;52639;51.180;20.460;2024-02-14T21:25:20;3.60;81.45
65864;SHT30;52639;51.180;20.460;2024-02-14T21:29:22;3.65;81.43
65864;SHT30;52639;51.180;20.460;2024-02-14T21:33:34;3.64;80.88
65864;SHT30;52639;51.180;20.460;2024-02-14T21:37:36;3.71;81.15
65864;SHT30;52639;51.180;20.460;2024-02-14T21:41:40;3.77;81.19
65864;SHT30;52639;51.180;20.460;2024-02-14T21:45:45;3.86;80.75
65864;SHT30;52639;51.180;20.460;2024-02-14T21:49:48;3.85;79.49
65864;SHT30;52639;51.180;20.460;2024-02-14T21:53:50;3.89;80.25
65864;SHT30;52639;51.180;20.460;2024-02-14T21:57:53;3.89;80.27
65864;SHT30;52639;51.180;20.460;2024-02-14T22:01:55;3.92;80.34
65864;SHT30;52639;51.180;20.460;2024-02-14T22:05:59;3.94;79.66
65864;SHT30;52639;51.180;20.460;2024-02-14T22:10:01;3.95;80.22
65864;SHT30;52639;51.180;20.460;2024-02-14T22:14:09;3.95;77.60
65864;SHT30;52639;51.180;20.460;2024-02-14T22:18:11;3.94;78.81
65864;SHT30;52639;51.180;20.460;2024-02-14T22:22:14;3.92;77.74
65864;SHT30;52639;51.180;20.460;2024-02-14T22:26:18;3.99;78.66
65864;SHT30;52639;51.180;20.460;2024-02-14T22:30:21;3.98;78.46
65864;SHT30;52639;51.180;20.460;2024-02-14T22:34:23;3.96;79.10
65864;SHT30;52639;51.180;20.460;2024-02-14T22:38:26;4.01;78.82
65864;SHT30;52639;51.180;20.460;2024-02-14T22:42:28;4.02;76.81
65864;SHT30;52639;51.180;20.460;2024-02-14T22:46:48;4.05;78.49
65864;SHT30;52639;51.180;20.460;2024-02-14T22:50:52;4.05;79.37
65864;SHT30;52639;51.180;20.460;2024-02-14T22:54:55;4.08;77.40
65864;SHT30;52639;51.180;20.460;2024-02-14T22:58:57;4.08;77.62
65864;SHT30;52639;51.180;20.460;2024-02-14T23:03:00;4.09;78.89
65864;SHT30;52639;51.180;20.460;2024-02-14T23:07:06;4.12;79.31
65864;SHT30;52639;51.180;20.460;2024-02-14T23:11:09;4.09;81.05
65864;SHT30;52639;51.180;20.460;2024-02-14T23:15:12;4.13;79.48
65864;SHT30;52639;51.180;20.460;2024-02-14T23:19:14;4.16;81.37
65864;SHT30;52639;51.180;20.460;2024-02-14T23:23:25;4.12;80.02
65864;SHT30;52639;51.180;20.460;2024-02-14T23:27:28;4.18;80.19
65864;SHT30;52639;51.180;20.460;2024-02-14T23:31:30;4.16;81.32
65864;SHT30;52639;51.180;20.460;2024-02-14T23:35:33;4.15;79.70
65864;SHT30;52639;51.180;20.460;2024-02-14T23:39:34;4.13;79.96
65864;SHT30;52639;51.180;20.460;2024-02-14T23:43:41;4.18;79.05
65864;SHT30;52639;51.180;20.460;2024-02-14T23:47:46;4.18;78.64
65864;SHT30;52639;51.180;20.460;2024-02-14T23:51:48;4.19;79.24
65864;SHT30;52639;51.180;20.460;2024-02-14T23:55:50;4.16;78.32
65864;SHT30;52639;51.180;20.460;2024-02-14T23:59:55;4.16;78.04
